createdAt,value
2023-02-07T00:03:03.402Z,-1.97
2023-02-07T00:08:25.294Z,-2.00
2023-02-07T00:13:51.115Z,-1.98
2023-02-07T00:19:13.008Z,-1.95
2023-02-07T00:24:34.981Z,-1.87
2023-02-07T00:29:56.786Z,-1.88
2023-02-07T00:35:18.706Z,-1.92
2023-02-07T00:40:40.550Z,-1.94
2023-02-07T00:46:04.311Z,-1.84
2023-02-07T00:51:27.572Z,-1.92
2023-02-07T00:56:49.530Z,-1.86
2023-02-07T01:02:11.413Z,-1.83
2023-02-07T01:07:34.191Z,-1.82
2023-02-07T01:12:56.131Z,-1.83
2023-02-07T01:18:17.989Z,-2.00
2023-02-07T01:23:39.886Z,-1.96
2023-02-07T01:29:01.992Z,-1.99
2023-02-07T01:34:25.024Z,-1.91
2023-02-07T01:39:47.448Z,-1.85
2023-02-07T01:45:30.266Z,-1.82
2023-02-07T01:50:55.288Z,-1.74
2023-02-07T01:56:30.980Z,-1.79
2023-02-07T02:01:55.234Z,-1.71
2023-02-07T02:07:17.336Z,-1.72
2023-02-07T02:13:07.392Z,-1.69
2023-02-07T02:18:47.867Z,-1.63
2023-02-07T02:24:27.851Z,-1.58
2023-02-07T02:30:08.486Z,-1.51
2023-02-07T02:35:45.644Z,-1.51
2023-02-07T02:41:19.959Z,-1.51
2023-02-07T02:46:45.043Z,-1.47
2023-02-07T02:52:07.378Z,-1.43
2023-02-07T02:57:35.066Z,-1.26
2023-02-07T03:03:26.591Z,-1.24
2023-02-07T03:09:06.224Z,-1.16
2023-02-07T03:14:35.986Z,-1.03
2023-02-07T03:20:12.456Z,-1.06
2023-02-07T03:25:36.771Z,-1.00
2023-02-07T03:31:02.591Z,-1.00
2023-02-07T03:36:31.257Z,-1.06
2023-02-07T03:41:57.251Z,-0.92
2023-02-07T03:47:19.654Z,-1.06
2023-02-07T03:52:41.540Z,-0.96
2023-02-07T03:58:03.354Z,-1.01
2023-02-07T04:03:25.361Z,-1.11
2023-02-07T04:08:47.618Z,-0.97
2023-02-07T04:14:09.481Z,-1.01
2023-02-07T04:19:31.420Z,-0.94
2023-02-07T04:24:53.276Z,-0.85
2023-02-07T04:30:15.140Z,-0.95
2023-02-07T04:35:37.266Z,-0.97
2023-02-07T04:41:01.321Z,-0.88
2023-02-07T04:46:23.152Z,-0.93
2023-02-07T04:51:45.073Z,-0.95
2023-02-07T04:57:06.899Z,-0.92
2023-02-07T05:02:28.772Z,-0.88
2023-02-07T05:07:50.663Z,-0.82
2023-02-07T05:13:12.577Z,-0.82
2023-02-07T05:18:34.377Z,-0.85
2023-02-07T05:23:56.175Z,-0.83
2023-02-07T05:29:18.025Z,-0.85
2023-02-07T05:34:39.872Z,-0.82
2023-02-07T05:40:01.811Z,-0.70
2023-02-07T05:45:23.912Z,-0.73
2023-02-07T05:50:45.748Z,-0.70
2023-02-07T05:56:07.597Z,-0.59
2023-02-07T06:01:29.435Z,-0.64
2023-02-07T06:06:51.251Z,-0.64
2023-02-07T06:12:13.113Z,-0.55
2023-02-07T06:17:35.283Z,-0.57
2023-02-07T06:22:57.146Z,-0.50
2023-02-07T06:28:19.016Z,-0.36
2023-02-07T06:33:40.907Z,-0.32
2023-02-07T06:39:03.988Z,-0.27
2023-02-07T06:44:25.898Z,-0.19
2023-02-07T06:49:48.113Z,-0.09
2023-02-07T06:55:10.010Z,-0.12
2023-02-07T07:00:31.943Z,-0.07
2023-02-07T07:05:53.801Z,0.05
2023-02-07T07:11:15.786Z,0.09
2023-02-07T07:16:38.453Z,0.21
2023-02-07T07:22:00.256Z,0.40
2023-02-07T07:27:22.105Z,0.37
2023-02-07T07:32:43.948Z,0.36
2023-02-07T07:38:05.857Z,0.54
2023-02-07T07:43:27.801Z,0.57
2023-02-07T07:48:49.678Z,0.66
2023-02-07T07:54:11.551Z,0.77
2023-02-07T07:59:33.376Z,0.93
2023-02-07T08:04:55.203Z,0.97
2023-02-07T08:10:17.376Z,1.02
2023-02-07T08:15:39.283Z,1.09
2023-02-07T08:21:01.517Z,1.28
2023-02-07T08:26:23.432Z,1.21
2023-02-07T08:31:45.462Z,1.40
2023-02-07T08:37:08.249Z,1.45
2023-02-07T08:42:30.272Z,1.33
2023-02-07T08:47:52.229Z,1.37
2023-02-07T08:53:14.109Z,1.37
2023-02-07T08:58:35.927Z,1.60
2023-02-07T09:03:57.846Z,1.69
2023-02-07T09:09:19.721Z,1.76
2023-02-07T09:14:41.629Z,1.85
2023-02-07T09:20:04.710Z,1.91
2023-02-07T09:25:26.573Z,1.95
2023-02-07T09:30:49.184Z,1.83
2023-02-07T09:36:22.405Z,1.84
2023-02-07T09:42:26.921Z,2.03
2023-02-07T09:47:53.442Z,2.06
2023-02-07T09:53:25.297Z,2.05
2023-02-07T09:58:57.357Z,2.31
2023-02-07T10:04:19.145Z,2.30
2023-02-07T10:09:44.130Z,2.16
2023-02-07T10:15:24.109Z,2.17
2023-02-07T10:21:00.261Z,2.38
2023-02-07T10:26:45.699Z,2.34
2023-02-07T10:32:25.898Z,2.30
2023-02-07T10:37:51.435Z,2.55
2023-02-07T10:43:21.070Z,2.86
2023-02-07T10:48:42.946Z,2.99
2023-02-07T10:54:07.168Z,2.96
2023-02-07T10:59:43.752Z,3.00
2023-02-07T11:05:17.712Z,2.99
2023-02-07T11:10:42.392Z,3.05
2023-02-07T11:16:08.968Z,2.99
2023-02-07T11:21:33.956Z,3.16
2023-02-07T11:27:06.956Z,3.26
2023-02-07T11:32:29.298Z,3.41
2023-02-07T11:38:12.003Z,3.66
2023-02-07T11:43:35.527Z,3.67
2023-02-07T11:48:58.689Z,3.89
2023-02-07T11:54:20.720Z,3.92
2023-02-07T11:59:50.004Z,3.96
2023-02-07T12:05:22.919Z,4.06
2023-02-07T12:10:49.417Z,3.96
2023-02-07T12:16:17.785Z,4.02
2023-02-07T12:22:19.075Z,3.40
2023-02-07T12:27:44.825Z,3.56
2023-02-07T12:33:20.916Z,3.60
2023-02-07T12:38:51.710Z,3.39
2023-02-07T12:44:42.589Z,3.24
2023-02-07T12:50:35.063Z,3.15
2023-02-07T12:56:12.368Z,3.09
2023-02-07T13:02:03.429Z,2.91
2023-02-07T13:07:38.448Z,3.11
2023-02-07T13:13:13.066Z,3.05
2023-02-07T13:18:53.089Z,3.00
2023-02-07T13:24:19.800Z,3.06
2023-02-07T13:29:41.915Z,2.97
2023-02-07T13:35:25.989Z,2.85
2023-02-07T13:41:01.683Z,2.93
2023-02-07T13:47:00.455Z,2.89
2023-02-07T13:52:35.330Z,2.68
2023-02-07T13:57:57.365Z,2.78
2023-02-07T14:03:28.563Z,2.70
2023-02-07T14:09:28.254Z,2.53
2023-02-07T14:15:02.355Z,2.61
2023-02-07T14:20:37.627Z,2.55
2023-02-07T14:25:59.709Z,2.50
2023-02-07T14:31:29.223Z,2.40
2023-02-07T14:36:51.798Z,2.33
2023-02-07T14:42:19.737Z,2.28
2023-02-07T14:47:43.415Z,2.22
2023-02-07T14:53:06.094Z,2.14
2023-02-07T14:58:40.381Z,2.18
2023-02-07T15:04:04.814Z,2.04
2023-02-07T15:09:27.844Z,2.13
2023-02-07T15:14:53.374Z,2.05
2023-02-07T15:20:18.235Z,1.98
2023-02-07T15:25:42.979Z,1.92
2023-02-07T15:31:16.256Z,1.79
2023-02-07T15:36:41.413Z,1.82
2023-02-07T15:42:04.009Z,1.85
2023-02-07T15:47:28.958Z,1.86
2023-02-07T15:53:16.204Z,1.77
2023-02-07T15:58:38.386Z,1.75
2023-02-07T16:04:03.328Z,1.61
2023-02-07T16:09:40.455Z,1.68
2023-02-07T16:15:02.547Z,1.63
2023-02-07T16:20:26.593Z,1.64
2023-02-07T16:25:48.618Z,1.64
2023-02-07T16:31:10.617Z,1.58
2023-02-07T16:36:32.553Z,1.63
2023-02-07T16:42:04.874Z,1.49
2023-02-07T16:47:26.663Z,1.50
2023-02-07T16:52:50.473Z,1.57
2023-02-07T16:58:24.641Z,1.41
2023-02-07T17:03:46.712Z,1.35
2023-02-07T17:09:14.707Z,1.40
2023-02-07T17:14:36.590Z,1.39
2023-02-07T17:19:58.443Z,1.43
2023-02-07T17:25:22.256Z,1.40
2023-02-07T17:30:44.325Z,1.40
2023-02-07T17:36:06.785Z,1.38
2023-02-07T17:41:28.647Z,1.29
2023-02-07T17:46:50.545Z,1.37
2023-02-07T17:52:12.428Z,1.34
2023-02-07T17:57:34.355Z,1.34
2023-02-07T18:02:56.209Z,1.25
2023-02-07T18:08:18.166Z,1.31
2023-02-07T18:13:41.488Z,1.33
2023-02-07T18:19:03.488Z,1.32
2023-02-07T18:24:25.389Z,1.30
2023-02-07T18:29:47.247Z,1.35
2023-02-07T18:35:09.673Z,1.39
2023-02-07T18:40:31.745Z,1.37
2023-02-07T18:45:53.598Z,1.39
2023-02-07T18:51:17.216Z,1.32
2023-02-07T18:56:39.288Z,1.25
2023-02-07T19:02:01.975Z,1.31
2023-02-07T19:07:23.820Z,1.20
2023-02-07T19:12:45.769Z,1.31
2023-02-07T19:18:07.680Z,1.21
2023-02-07T19:23:29.964Z,1.21
2023-02-07T19:28:52.518Z,1.21
2023-02-07T19:34:14.928Z,1.23
2023-02-07T19:39:36.865Z,1.14
2023-02-07T19:44:58.833Z,1.24
2023-02-07T19:50:21.445Z,1.19
2023-02-07T19:55:43.332Z,1.09
2023-02-07T20:01:05.531Z,0.93
2023-02-07T20:06:30.385Z,1.08
2023-02-07T20:11:52.278Z,1.11
2023-02-07T20:17:14.148Z,0.84
2023-02-07T20:22:35.999Z,1.07
2023-02-07T20:27:57.871Z,1.12
2023-02-07T20:33:19.828Z,1.15
2023-02-07T20:38:42.063Z,1.12
2023-02-07T20:44:06.745Z,1.03
2023-02-07T20:49:30.368Z,0.83
2023-02-07T20:54:52.350Z,0.79
2023-02-07T21:00:14.775Z,0.78
2023-02-07T21:05:38.559Z,0.67
2023-02-07T21:11:00.940Z,0.51
2023-02-07T21:16:22.866Z,0.66
2023-02-07T21:21:45.604Z,0.65
2023-02-07T21:27:07.452Z,0.65
2023-02-07T21:32:29.399Z,0.66
2023-02-07T21:37:51.269Z,0.70
2023-02-07T21:43:13.201Z,0.77
2023-02-07T21:48:36.931Z,0.87
2023-02-07T21:53:59.598Z,0.77
2023-02-07T21:59:21.721Z,0.82
2023-02-07T22:04:43.676Z,0.85
2023-02-07T22:10:05.974Z,0.93
2023-02-07T22:15:27.870Z,0.86
2023-02-07T22:20:50.103Z,0.82
2023-02-07T22:26:11.993Z,0.78
2023-02-07T22:31:37.013Z,0.77
2023-02-07T22:36:58.927Z,0.90
2023-02-07T22:42:20.811Z,0.88
2023-02-07T22:47:42.655Z,0.80
2023-02-07T22:53:04.781Z,0.82
2023-02-07T22:58:26.694Z,0.85
2023-02-07T23:03:49.363Z,0.80
2023-02-07T23:09:11.423Z,0.92
2023-02-07T23:14:33.178Z,0.88
2023-02-07T23:19:55.228Z,1.01
2023-02-07T23:25:17.090Z,1.05
2023-02-07T23:30:39.937Z,0.99
2023-02-07T23:36:02.882Z,1.09
2023-02-07T23:41:24.754Z,0.85
2023-02-07T23:46:46.703Z,0.91
2023-02-07T23:52:08.596Z,1.07
2023-02-07T23:57:30.495Z,1.12
